Leechburg, Pennsylvania
Current Conditions -  °F | °C
As of 2:35 AM on Thursday 18 Dec 2014 (Local Time) from KBTP Reporting Station
Overcast Overcast  
Wind Chill: -8°   Ceiling: 2400
Heat Index: -2°   Visibility: 10mi
Dew Point: -7°   Wind: 12mph
Humidity: 69%   Direction: 290°WNW
Pressure: 30.16"   Gusts: 16mph
Location:  40.63°N, 79.61°W
Report Text: KBTP 180735Z AUTO 29010G14KT 250V330 10SM OVC024 M02/M07 A3016 RMK AO1
Loading
Personal Weather Stations






























Interactive Weather Map New forecast layout! Learn more

10-Day Weather Forecast

Advertisements
Track Severe Weather on mobile